createdAt,value
2016-06-15T00:00:00.922Z,0
2016-06-15T00:01:00.909Z,0
2016-06-15T00:02:00.913Z,0
2016-06-15T00:03:00.697Z,0
2016-06-15T00:04:00.856Z,0
2016-06-15T00:05:00.406Z,0
2016-06-15T00:06:00.878Z,0
2016-06-15T00:07:00.834Z,0
2016-06-15T00:08:00.775Z,0
2016-06-15T00:09:00.778Z,0
2016-06-15T00:10:00.624Z,0
2016-06-15T00:11:00.753Z,0
2016-06-15T00:12:00.787Z,0
2016-06-15T00:13:00.728Z,0
2016-06-15T00:14:00.746Z,0
2016-06-15T00:15:00.703Z,0
2016-06-15T00:16:00.706Z,0
2016-06-15T00:17:00.678Z,0
2016-06-15T00:18:00.509Z,0
2016-06-15T00:19:00.652Z,0
2016-06-15T00:20:00.905Z,0
2016-06-15T00:21:00.611Z,0
2016-06-15T00:22:00.647Z,0
2016-06-15T00:23:00.602Z,0
2016-06-15T00:24:00.606Z,0
2016-06-15T00:25:00.405Z,0
2016-06-15T00:26:00.565Z,0
2016-06-15T00:27:00.567Z,0
2016-06-15T00:28:00.524Z,0
2016-06-15T00:29:00.542Z,0
2016-06-15T00:30:00.530Z,0
2016-06-15T00:31:00.501Z,0
2016-06-15T00:32:00.489Z,0
2016-06-15T00:33:00.461Z,0
2016-06-15T00:34:00.448Z,0
2016-06-15T00:35:00.889Z,0
2016-06-15T00:36:00.501Z,0
2016-06-15T00:37:00.411Z,0
2016-06-15T00:38:00.413Z,0
2016-06-15T00:39:00.354Z,0
2016-06-15T00:40:00.374Z,0
2016-06-15T00:41:00.361Z,0
2016-06-15T00:42:00.332Z,0
2016-06-15T00:43:00.336Z,0
2016-06-15T00:44:00.323Z,0
2016-06-15T00:45:00.310Z,0
2016-06-15T00:46:00.282Z,0
2016-06-15T00:47:00.270Z,0
2016-06-15T00:48:00.257Z,0
2016-06-15T00:49:00.244Z,0
2016-06-15T00:50:00.997Z,0
2016-06-15T00:51:00.219Z,0
2016-06-15T00:52:00.207Z,0
2016-06-15T00:53:00.178Z,0
2016-06-15T00:54:00.167Z,0
2016-06-15T00:55:00.170Z,0
2016-06-15T00:55:59.860Z,0
2016-06-15T00:57:00.144Z,0
2016-06-15T00:58:00.147Z,0
2016-06-15T00:59:00.150Z,0
2016-06-15T01:00:00.158Z,0
2016-06-15T01:01:00.042Z,0
2016-06-15T01:02:00.221Z,0
2016-06-15T01:03:00.229Z,0
2016-06-15T01:04:00.250Z,0
2016-06-15T01:05:01.094Z,0
2016-06-15T01:06:00.235Z,0
2016-06-15T01:07:00.220Z,0
2016-06-15T01:08:00.236Z,0
2016-06-15T01:09:00.214Z,0
2016-06-15T01:10:00.238Z,0
2016-06-15T01:11:00.214Z,0
2016-06-15T01:12:00.207Z,0
2016-06-15T01:13:00.183Z,0
2016-06-15T01:14:00.173Z,0
2016-06-15T01:15:00.193Z,0
2016-06-15T01:16:00.136Z,0
2016-06-15T01:17:00.125Z,0
2016-06-15T01:18:00.129Z,0
2016-06-15T01:19:00.134Z,0
2016-06-15T01:20:00.028Z,0
2016-06-15T01:20:59.766Z,0
2016-06-15T01:22:00.067Z,0
2016-06-15T01:23:00.118Z,0
2016-06-15T01:24:00.043Z,0
2016-06-15T01:25:00.092Z,0
2016-06-15T01:26:00.017Z,0
2016-06-15T01:27:00.020Z,0
2016-06-15T01:27:59.993Z,0
2016-06-15T01:28:59.979Z,0
2016-06-15T01:29:59.968Z,0
2016-06-15T01:31:00.032Z,0
2016-06-15T01:31:59.943Z,0
2016-06-15T01:32:59.820Z,0
2016-06-15T01:33:59.917Z,0
2016-06-15T01:35:00.247Z,0
2016-06-15T01:35:59.751Z,0
2016-06-15T01:36:59.941Z,0
2016-06-15T01:37:59.851Z,0
2016-06-15T01:38:59.885Z,0
2016-06-15T01:39:59.842Z,0
2016-06-15T01:40:59.813Z,0
2016-06-15T01:41:59.801Z,0
2016-06-15T01:42:59.663Z,0
2016-06-15T01:43:59.604Z,0
2016-06-15T01:44:59.811Z,0
2016-06-15T01:45:59.594Z,0
2016-06-15T01:46:59.628Z,0
2016-06-15T01:47:59.725Z,0
2016-06-15T01:48:59.776Z,0
2016-06-15T01:49:59.701Z,0
2016-06-15T01:51:00.360Z,0
2016-06-15T01:51:59.675Z,0
2016-06-15T01:52:59.757Z,0
2016-06-15T01:53:59.635Z,0
2016-06-15T01:54:59.622Z,0
2016-06-15T01:55:59.625Z,0
2016-06-15T01:56:59.659Z,0
2016-06-15T01:57:59.600Z,0
2016-06-15T01:58:59.618Z,0
2016-06-15T01:59:59.560Z,0
2016-06-15T02:00:59.547Z,0
2016-06-15T02:01:59.550Z,0
2016-06-15T02:02:59.569Z,0
2016-06-15T02:03:59.525Z,0
2016-06-15T02:04:59.512Z,0
2016-06-15T02:05:59.781Z,0
2016-06-15T02:06:59.315Z,0
2016-06-15T02:07:59.443Z,0
2016-06-15T02:08:59.352Z,0
2016-06-15T02:09:59.418Z,0
2016-06-15T02:10:59.421Z,0
2016-06-15T02:11:59.409Z,0
2016-06-15T02:12:59.397Z,0
2016-06-15T02:13:59.368Z,0
2016-06-15T02:14:59.340Z,0
2016-06-15T02:15:59.328Z,0
2016-06-15T02:16:59.362Z,0
2016-06-15T02:17:59.334Z,0
2016-06-15T02:18:59.290Z,0
2016-06-15T02:19:59.136Z,0
2016-06-15T02:20:59.374Z,0
2016-06-15T02:21:59.299Z,0
2016-06-15T02:22:59.240Z,0
2016-06-15T02:23:59.227Z,0
2016-06-15T02:24:59.215Z,0
2016-06-15T02:25:59.217Z,0
2016-06-15T02:26:59.204Z,0
2016-06-15T02:27:59.176Z,0
2016-06-15T02:28:59.149Z,0
2016-06-15T02:29:59.135Z,0
2016-06-15T02:30:59.139Z,0
2016-06-15T02:31:58.969Z,0
2016-06-15T02:32:59.098Z,0
2016-06-15T02:33:59.133Z,0
2016-06-15T02:34:59.073Z,0
2016-06-15T02:35:59.060Z,0
2016-06-15T02:36:59.048Z,0
2016-06-15T02:37:59.051Z,0
2016-06-15T02:38:59.007Z,0
2016-06-15T02:39:59.072Z,0
2016-06-15T02:40:58.997Z,0
2016-06-15T02:41:58.970Z,0
2016-06-15T02:42:58.925Z,0
2016-06-15T02:43:58.945Z,0
2016-06-15T02:44:58.932Z,0
2016-06-15T02:45:58.966Z,0
2016-06-15T02:46:58.923Z,0
2016-06-15T02:47:58.926Z,0
2016-06-15T02:48:58.897Z,0
2016-06-15T02:49:58.916Z,0
2016-06-15T02:50:59.748Z,0
2016-06-15T02:51:58.922Z,0
2016-06-15T02:52:58.848Z,0
2016-06-15T02:53:58.819Z,0
2016-06-15T02:54:58.791Z,0
2016-06-15T02:55:58.779Z,0
2016-06-15T02:56:58.750Z,0
2016-06-15T02:57:58.768Z,0
2016-06-15T02:58:58.866Z,0
2016-06-15T02:59:58.758Z,0
2016-06-15T03:00:58.700Z,0
2016-06-15T03:01:58.734Z,0
2016-06-15T03:02:58.660Z,0
2016-06-15T03:03:58.678Z,0
2016-06-15T03:04:58.665Z,0
2016-06-15T03:05:59.168Z,0
2016-06-15T03:06:58.641Z,0
2016-06-15T03:07:58.644Z,0
2016-06-15T03:08:58.600Z,0
2016-06-15T03:09:58.619Z,0
2016-06-15T03:10:58.558Z,0
2016-06-15T03:11:58.453Z,0
2016-06-15T03:12:58.534Z,0
2016-06-15T03:13:58.537Z,0
2016-06-15T03:14:58.509Z,0
2016-06-15T03:15:58.496Z,0
2016-06-15T03:16:58.530Z,0
2016-06-15T03:17:58.159Z,0
2016-06-15T03:18:58.442Z,0
2016-06-15T03:19:58.445Z,0
2016-06-15T03:20:59.027Z,0
2016-06-15T03:21:58.451Z,0
2016-06-15T03:22:58.408Z,0
2016-06-15T03:23:58.380Z,0
2016-06-15T03:24:58.210Z,0
2016-06-15T03:25:58.339Z,0
2016-06-15T03:26:58.358Z,5
2016-06-15T03:27:58.345Z,5
2016-06-15T03:28:58.317Z,5
2016-06-15T03:29:58.320Z,5
2016-06-15T03:30:58.308Z,5
2016-06-15T03:31:58.279Z,5
2016-06-15T03:32:58.251Z,5
2016-06-15T03:33:58.317Z,5
2016-06-15T03:34:58.227Z,5
2016-06-15T03:35:58.432Z,5
2016-06-15T03:36:58.233Z,5
2016-06-15T03:37:58.173Z,5
2016-06-15T03:38:58.176Z,5
2016-06-15T03:39:58.211Z,10
2016-06-15T03:40:58.135Z,10
2016-06-15T03:41:58.138Z,10
2016-06-15T03:42:58.126Z,10
2016-06-15T03:43:58.098Z,10
2016-06-15T03:44:58.085Z,10
2016-06-15T03:45:58.058Z,10
2016-06-15T03:46:58.060Z,10
2016-06-15T03:47:58.064Z,10
2016-06-15T03:48:58.034Z,10
2016-06-15T03:49:58.023Z,10
2016-06-15T03:50:58.947Z,10
2016-06-15T03:51:57.998Z,10
2016-06-15T03:52:57.968Z,10
2016-06-15T03:53:57.957Z,10
2016-06-15T03:54:57.943Z,10
2016-06-15T03:55:57.947Z,10
2016-06-15T03:56:57.919Z,10
2016-06-15T03:57:57.906Z,10
2016-06-15T03:58:57.879Z,10
2016-06-15T03:59:57.865Z,15
2016-06-15T04:00:57.853Z,15
2016-06-15T04:01:57.872Z,15
2016-06-15T04:02:57.812Z,15
2016-06-15T04:03:57.800Z,15
2016-06-15T04:04:57.802Z,15
2016-06-15T04:05:58.525Z,15
2016-06-15T04:06:57.762Z,15
2016-06-15T04:07:57.750Z,15
2016-06-15T04:08:57.737Z,15
2016-06-15T04:09:57.740Z,15
2016-06-15T04:10:57.415Z,15
2016-06-15T04:11:57.684Z,15
2016-06-15T04:12:57.687Z,15
2016-06-15T04:13:57.674Z,15
2016-06-15T04:14:57.630Z,15
2016-06-15T04:15:57.618Z,15
2016-06-15T04:16:57.620Z,15
2016-06-15T04:17:57.453Z,20
2016-06-15T04:18:57.612Z,20
2016-06-15T04:19:57.584Z,20
2016-06-15T04:20:58.212Z,20
2016-06-15T04:21:57.574Z,20
2016-06-15T04:22:57.546Z,20
2016-06-15T04:23:57.502Z,20
2016-06-15T04:24:57.506Z,20
2016-06-15T04:25:57.477Z,20
2016-06-15T04:26:57.481Z,20
2016-06-15T04:27:57.467Z,20
2016-06-15T04:28:57.440Z,20
2016-06-15T04:29:57.443Z,20
2016-06-15T04:30:57.414Z,20
2016-06-15T04:31:57.402Z,20
2016-06-15T04:32:57.389Z,20
2016-06-15T04:33:57.377Z,20
2016-06-15T04:34:57.067Z,20
2016-06-15T04:35:57.367Z,25
2016-06-15T04:36:57.339Z,25
2016-06-15T04:37:57.154Z,25
2016-06-15T04:38:57.173Z,25
2016-06-15T04:39:57.285Z,30
2016-06-15T04:40:57.102Z,30
2016-06-15T04:41:57.244Z,35
2016-06-15T04:42:57.325Z,35
2016-06-15T04:43:57.219Z,40
2016-06-15T04:44:57.066Z,40
2016-06-15T04:45:57.194Z,40
2016-06-15T04:46:57.198Z,45
2016-06-15T04:47:57.169Z,40
2016-06-15T04:48:57.188Z,45
2016-06-15T04:49:57.129Z,45
2016-06-15T04:50:57.147Z,45
2016-06-15T04:51:56.963Z,45
2016-06-15T04:52:56.950Z,45
2016-06-15T04:53:57.063Z,45
2016-06-15T04:54:57.050Z,45
2016-06-15T04:55:57.053Z,45
2016-06-15T04:56:57.118Z,45
2016-06-15T04:57:57.013Z,45
2016-06-15T04:58:56.859Z,45
2016-06-15T04:59:56.832Z,45
2016-06-15T05:00:57.037Z,50
2016-06-15T05:01:56.963Z,50
2016-06-15T05:02:56.981Z,50
2016-06-15T05:03:56.922Z,50
2016-06-15T05:04:56.956Z,50
2016-06-15T05:05:56.959Z,50
2016-06-15T05:06:57.524Z,50
2016-06-15T05:07:56.871Z,50
2016-06-15T05:08:56.719Z,50
2016-06-15T05:09:56.846Z,50
2016-06-15T05:10:56.850Z,50
2016-06-15T05:11:56.821Z,55
2016-06-15T05:12:56.856Z,60
2016-06-15T05:13:56.812Z,60
2016-06-15T05:14:56.768Z,65
2016-06-15T05:15:56.740Z,70
2016-06-15T05:16:56.743Z,80
2016-06-15T05:17:56.730Z,75
2016-06-15T05:18:56.718Z,80
2016-06-15T05:19:56.690Z,80
2016-06-15T05:20:56.989Z,80
2016-06-15T05:21:56.681Z,85
2016-06-15T05:22:56.652Z,85
2016-06-15T05:23:56.640Z,85
2016-06-15T05:24:56.626Z,85
2016-06-15T05:25:56.615Z,80
2016-06-15T05:26:56.679Z,80
2016-06-15T05:27:56.589Z,75
2016-06-15T05:28:56.577Z,80
2016-06-15T05:29:56.549Z,80
2016-06-15T05:30:56.552Z,80
2016-06-15T05:31:56.508Z,80
2016-06-15T05:32:56.573Z,85
2016-06-15T05:33:56.498Z,80
2016-06-15T05:34:56.548Z,85
2016-06-15T05:35:56.411Z,80
2016-06-15T05:36:56.788Z,80
2016-06-15T05:37:56.416Z,80
2016-06-15T05:38:56.451Z,80
2016-06-15T05:39:56.391Z,80
2016-06-15T05:40:56.410Z,80
2016-06-15T05:41:56.382Z,80
2016-06-15T05:42:56.198Z,85
2016-06-15T05:43:56.325Z,85
2016-06-15T05:44:56.360Z,85
2016-06-15T05:45:56.332Z,85
2016-06-15T05:46:56.539Z,85
2016-06-15T05:47:56.291Z,90
2016-06-15T05:48:56.279Z,90
2016-06-15T05:49:56.094Z,90
2016-06-15T05:50:56.800Z,90
2016-06-15T05:51:56.116Z,90
2016-06-15T05:52:56.073Z,90
2016-06-15T05:53:56.059Z,90
2016-06-15T05:54:56.219Z,90
2016-06-15T05:55:56.190Z,95
2016-06-15T05:56:56.178Z,95
2016-06-15T05:57:56.150Z,90
2016-06-15T05:58:56.138Z,85
2016-06-15T05:59:56.141Z,80
2016-06-15T06:00:56.128Z,70
2016-06-15T06:01:56.100Z,70
2016-06-15T06:02:56.104Z,70
2016-06-15T06:03:56.074Z,70
2016-06-15T06:04:56.063Z,70
2016-06-15T06:05:56.237Z,70
2016-06-15T06:06:56.708Z,70
2016-06-15T06:07:56.072Z,70
2016-06-15T06:08:56.012Z,70
2016-06-15T06:09:55.999Z,70
2016-06-15T06:10:56.503Z,75
2016-06-15T06:11:55.974Z,75
2016-06-15T06:12:55.977Z,70
2016-06-15T06:13:55.810Z,70
2016-06-15T06:14:55.968Z,70
2016-06-15T06:15:57.066Z,65
2016-06-15T06:16:55.771Z,65
2016-06-15T06:17:55.759Z,65
2016-06-15T06:18:55.886Z,65
2016-06-15T06:19:55.890Z,70
2016-06-15T06:20:55.862Z,70
2016-06-15T06:21:56.896Z,75
2016-06-15T06:22:55.868Z,75
2016-06-15T06:23:55.840Z,75
2016-06-15T06:24:55.811Z,80
2016-06-15T06:25:56.080Z,80
2016-06-15T06:26:55.770Z,80
2016-06-15T06:27:55.820Z,85
2016-06-15T06:28:55.761Z,90
2016-06-15T06:29:55.749Z,100
2016-06-15T06:30:56.751Z,105
2016-06-15T06:31:55.724Z,115
2016-06-15T06:32:55.695Z,120
2016-06-15T06:33:55.730Z,125
2016-06-15T06:34:55.670Z,125
2016-06-15T06:35:58.033Z,125
2016-06-15T06:36:55.895Z,125
2016-06-15T06:37:55.663Z,130
2016-06-15T06:38:55.479Z,135
2016-06-15T06:39:55.607Z,140
2016-06-15T06:40:55.610Z,145
2016-06-15T06:41:55.660Z,145
2016-06-15T06:42:57.038Z,150
2016-06-15T06:43:55.557Z,155
2016-06-15T06:44:56.669Z,165
2016-06-15T06:45:56.173Z,170
2016-06-15T06:46:55.519Z,175
2016-06-15T06:47:55.507Z,170
2016-06-15T06:48:55.494Z,155
2016-06-15T06:49:55.560Z,140
2016-06-15T06:50:55.469Z,125
2016-06-15T06:51:55.332Z,115
2016-06-15T06:52:55.491Z,115
2016-06-15T06:53:55.307Z,110
2016-06-15T06:54:55.263Z,105
2016-06-15T06:55:57.392Z,105
2016-06-15T06:56:55.378Z,105
2016-06-15T06:57:55.460Z,105
2016-06-15T06:58:55.368Z,105
2016-06-15T06:59:55.419Z,105
2016-06-15T07:00:56.875Z,105
2016-06-15T07:01:55.316Z,105
2016-06-15T07:02:55.335Z,105
2016-06-15T07:03:55.306Z,110
2016-06-15T07:04:55.137Z,110
2016-06-15T07:05:56.828Z,115
2016-06-15T07:06:55.409Z,115
2016-06-15T07:07:55.271Z,120
2016-06-15T07:08:55.259Z,130
2016-06-15T07:09:55.246Z,135
2016-06-15T07:10:55.218Z,145
2016-06-15T07:11:55.238Z,145
2016-06-15T07:12:55.224Z,145
2016-06-15T07:13:55.103Z,150
2016-06-15T07:14:55.183Z,150
2016-06-15T07:15:55.500Z,155
2016-06-15T07:16:55.159Z,155
2016-06-15T07:17:55.162Z,155
2016-06-15T07:18:55.149Z,155
2016-06-15T07:19:55.121Z,155
2016-06-15T07:20:55.093Z,155
2016-06-15T07:21:54.784Z,160
2016-06-15T07:22:55.067Z,170
2016-06-15T07:23:55.055Z,180
2016-06-15T07:24:55.058Z,190
2016-06-15T07:25:56.281Z,205
2016-06-15T07:26:55.064Z,210
2016-06-15T07:27:55.021Z,215
2016-06-15T07:28:55.008Z,225
2016-06-15T07:29:54.996Z,230
2016-06-15T07:30:56.483Z,240
2016-06-15T07:31:54.986Z,255
2016-06-15T07:32:54.958Z,260
2016-06-15T07:33:54.961Z,265
2016-06-15T07:34:54.979Z,275
2016-06-15T07:35:56.201Z,280
2016-06-15T07:36:55.501Z,265
2016-06-15T07:37:54.879Z,265
2016-06-15T07:38:54.960Z,260
2016-06-15T07:39:54.729Z,270
2016-06-15T07:40:55.264Z,280
2016-06-15T07:41:54.705Z,280
2016-06-15T07:42:54.847Z,275
2016-06-15T07:43:54.679Z,265
2016-06-15T07:44:54.854Z,260
2016-06-15T07:45:54.670Z,260
2016-06-15T07:46:54.891Z,270
2016-06-15T07:47:54.801Z,260
2016-06-15T07:48:54.913Z,265
2016-06-15T07:49:54.760Z,265
2016-06-15T07:50:54.966Z,265
2016-06-15T07:51:54.766Z,275
2016-06-15T07:52:54.754Z,290
2016-06-15T07:53:54.709Z,300
2016-06-15T07:54:54.728Z,295
2016-06-15T07:55:55.123Z,290
2016-06-15T07:56:54.719Z,290
2016-06-15T07:57:54.660Z,285
2016-06-15T07:58:54.724Z,285
2016-06-15T07:59:54.650Z,280
2016-06-15T08:00:55.403Z,280
2016-06-15T08:01:54.641Z,280
2016-06-15T08:02:54.534Z,280
2016-06-15T08:03:54.272Z,285
2016-06-15T08:04:54.634Z,285
2016-06-15T08:05:54.684Z,290
2016-06-15T08:06:55.703Z,290
2016-06-15T08:07:54.549Z,280
2016-06-15T08:08:54.584Z,265
2016-06-15T08:09:54.572Z,250
2016-06-15T08:10:54.933Z,270
2016-06-15T08:11:54.531Z,290
2016-06-15T08:12:54.533Z,315
2016-06-15T08:13:54.521Z,335
2016-06-15T08:14:54.431Z,290
2016-06-15T08:15:54.512Z,280
2016-06-15T08:16:54.484Z,295
2016-06-15T08:17:54.471Z,295
2016-06-15T08:18:54.458Z,280
2016-06-15T08:19:54.289Z,260
2016-06-15T08:20:57.870Z,260
2016-06-15T08:21:56.187Z,230
2016-06-15T08:22:57.048Z,210
2016-06-15T08:23:55.084Z,200
2016-06-15T08:24:54.383Z,195
2016-06-15T08:25:54.386Z,190
2016-06-15T08:26:54.374Z,200
2016-06-15T08:27:54.361Z,195
2016-06-15T08:28:54.192Z,195
2016-06-15T08:29:54.336Z,190
2016-06-15T08:30:58.839Z,195
2016-06-15T08:31:54.389Z,210
2016-06-15T08:32:54.299Z,225
2016-06-15T08:33:54.348Z,225
2016-06-15T08:34:54.321Z,215
2016-06-15T08:35:56.121Z,240
2016-06-15T08:36:54.530Z,235
2016-06-15T08:37:54.267Z,175
2016-06-15T08:38:54.254Z,150
2016-06-15T08:39:54.148Z,150
2016-06-15T08:40:55.042Z,155
2016-06-15T08:41:54.279Z,160
2016-06-15T08:42:54.204Z,170
2016-06-15T08:43:54.191Z,175
2016-06-15T08:44:54.038Z,170
2016-06-15T08:45:54.183Z,180
2016-06-15T08:46:54.169Z,205
2016-06-15T08:47:53.861Z,300
2016-06-15T08:48:54.128Z,285
2016-06-15T08:49:54.053Z,250
2016-06-15T08:50:56.182Z,125
2016-06-15T08:51:54.590Z,105
2016-06-15T08:52:54.094Z,100
2016-06-15T08:53:54.112Z,95
2016-06-15T08:54:54.085Z,90
2016-06-15T08:55:54.322Z,80
2016-06-15T08:56:54.075Z,75
2016-06-15T08:57:54.219Z,70
2016-06-15T08:58:53.909Z,65
2016-06-15T09:00:00.694Z,65
2016-06-15T09:00:54.025Z,65
2016-06-15T09:01:53.997Z,60
2016-06-15T09:03:00.297Z,55
2016-06-15T09:03:54.035Z,50
2016-06-15T09:04:54.006Z,50
2016-06-15T09:05:54.588Z,50
2016-06-15T09:06:54.044Z,55
2016-06-15T09:07:53.984Z,60
2016-06-15T09:08:53.941Z,65
2016-06-15T09:09:53.912Z,70
2016-06-15T09:10:53.931Z,75
2016-06-15T09:11:53.919Z,80
2016-06-15T09:12:53.777Z,90
2016-06-15T09:13:53.872Z,110
2016-06-15T09:14:53.858Z,125
2016-06-15T09:16:13.299Z,160
2016-06-15T09:16:53.849Z,210
2016-06-15T09:17:53.837Z,225
2016-06-15T09:18:53.808Z,205
2016-06-15T09:19:53.811Z,200
2016-06-15T09:20:53.659Z,220
2016-06-15T09:21:54.708Z,245
2016-06-15T09:22:53.712Z,255
2016-06-15T09:23:53.839Z,280
2016-06-15T09:24:53.749Z,325
2016-06-15T09:25:53.751Z,350
2016-06-15T09:26:53.739Z,455
2016-06-15T09:27:53.711Z,395
2016-06-15T09:28:53.699Z,455
2016-06-15T09:29:53.680Z,440
2016-06-15T09:30:53.668Z,455
2016-06-15T09:31:53.672Z,475
2016-06-15T09:32:53.690Z,455
2016-06-15T09:33:53.645Z,420
2016-06-15T09:34:53.681Z,425
2016-06-15T09:35:53.652Z,430
2016-06-15T09:36:53.811Z,420
2016-06-15T09:37:53.642Z,245
2016-06-15T09:38:53.629Z,215
2016-06-15T09:39:53.617Z,180
2016-06-15T09:40:53.605Z,165
2016-06-15T09:41:53.608Z,120
2016-06-15T09:42:53.439Z,115
2016-06-15T09:43:53.583Z,140
2016-06-15T09:44:53.555Z,175
2016-06-15T09:45:53.557Z,225
2016-06-15T09:46:53.685Z,540
2016-06-15T09:47:53.548Z,415
2016-06-15T09:48:53.474Z,555
2016-06-15T09:49:53.554Z,265
2016-06-15T09:50:53.214Z,380
2016-06-15T09:51:56.639Z,800
2016-06-15T09:52:53.970Z,835
2016-06-15T09:53:53.488Z,840
2016-06-15T09:54:53.476Z,140
2016-06-15T09:55:53.495Z,90
2016-06-15T09:56:53.482Z,70
2016-06-15T09:57:53.469Z,60
2016-06-15T09:58:53.473Z,55
2016-06-15T09:59:53.288Z,55
2016-06-15T10:00:53.431Z,55
2016-06-15T10:01:53.450Z,55
2016-06-15T10:02:53.437Z,55
2016-06-15T10:03:53.444Z,60
2016-06-15T10:04:53.502Z,70
2016-06-15T10:05:53.514Z,80
2016-06-15T10:06:53.574Z,95
2016-06-15T10:07:54.444Z,115
2016-06-15T10:08:53.569Z,145
2016-06-15T10:09:53.602Z,175
2016-06-15T10:10:53.603Z,205
2016-06-15T10:11:53.589Z,200
2016-06-15T10:12:53.451Z,190
2016-06-15T10:13:53.605Z,190
2016-06-15T10:14:53.597Z,175
2016-06-15T10:15:53.590Z,180
2016-06-15T10:16:53.583Z,200
2016-06-15T10:17:59.419Z,225
2016-06-15T10:18:53.582Z,245
2016-06-15T10:19:53.665Z,255
2016-06-15T10:20:53.561Z,260
2016-06-15T10:21:54.472Z,265
2016-06-15T10:22:53.743Z,270
2016-06-15T10:23:53.544Z,285
2016-06-15T10:24:53.517Z,265
2016-06-15T10:25:53.521Z,240
2016-06-15T10:26:53.491Z,245
2016-06-15T10:27:53.355Z,235
2016-06-15T10:28:53.484Z,260
2016-06-15T10:29:53.487Z,305
2016-06-15T10:30:53.471Z,220
2016-06-15T10:31:53.458Z,185
2016-06-15T10:32:53.447Z,175
2016-06-15T10:33:53.497Z,155
2016-06-15T10:34:53.423Z,145
2016-06-15T10:36:22.647Z,145
2016-06-15T10:37:06.292Z,145
2016-06-15T10:38:22.966Z,165
2016-06-15T10:39:06.031Z,175
2016-06-15T10:40:45.629Z,400
2016-06-15T10:42:03.604Z,265
2016-06-15T10:42:31.354Z,350
2016-06-15T10:43:21.794Z,445
2016-06-15T10:44:17.235Z,350
2016-06-15T10:45:17.175Z,420
2016-06-15T10:47:07.150Z,255
2016-06-15T10:47:39.697Z,235
2016-06-15T10:49:19.016Z,285
2016-06-15T10:50:05.954Z,190
2016-06-15T10:51:06.488Z,185
2016-06-15T10:53:10.479Z,125
2016-06-15T10:54:52.844Z,80
2016-06-15T10:55:56.269Z,60
2016-06-15T10:56:16.397Z,60
2016-06-15T10:57:16.353Z,50
2016-06-15T10:58:16.168Z,40
2016-06-15T10:59:16.329Z,40
2016-06-15T11:00:16.379Z,40
2016-06-15T11:01:16.303Z,40
2016-06-15T11:02:16.369Z,40
2016-06-15T11:03:16.122Z,40
2016-06-15T11:04:16.297Z,45
2016-06-15T11:05:16.300Z,55
2016-06-15T11:06:16.273Z,65
2016-06-15T11:07:16.368Z,75
2016-06-15T11:08:16.590Z,85
2016-06-15T11:09:16.266Z,100
2016-06-15T11:10:16.065Z,115
2016-06-15T11:11:16.209Z,130
2016-06-15T11:12:16.212Z,150
2016-06-15T11:13:16.215Z,170
2016-06-15T11:14:16.186Z,175
2016-06-15T11:15:16.018Z,185
2016-06-15T11:16:16.178Z,180
2016-06-15T11:17:16.149Z,180
2016-06-15T11:18:16.122Z,175
2016-06-15T11:19:16.140Z,180
2016-06-15T11:20:16.206Z,195
2016-06-15T11:21:16.100Z,215
2016-06-15T11:22:16.617Z,255
2016-06-15T11:23:15.949Z,520
2016-06-15T11:24:16.109Z,225
2016-06-15T11:25:16.080Z,310
2016-06-15T11:26:16.052Z,195
2016-06-15T11:27:16.040Z,340
2016-06-15T11:28:16.042Z,390
2016-06-15T11:29:16.030Z,335
2016-06-15T11:30:16.017Z,300
2016-06-15T11:31:15.880Z,350
2016-06-15T11:32:16.008Z,295
2016-06-15T11:33:16.026Z,405
2016-06-15T11:34:15.983Z,395
2016-06-15T11:35:15.987Z,360
2016-06-15T11:36:15.974Z,390
2016-06-15T11:37:15.976Z,320
2016-06-15T11:38:16.245Z,270
2016-06-15T11:39:15.966Z,295
2016-06-15T11:40:15.938Z,395
2016-06-15T11:41:15.958Z,405
2016-06-15T11:42:15.929Z,405
2016-06-15T11:43:15.917Z,345
2016-06-15T11:44:15.920Z,375
2016-06-15T11:45:15.923Z,340
2016-06-15T11:46:15.911Z,375
2016-06-15T11:47:15.913Z,390
2016-06-15T11:48:15.710Z,380
2016-06-15T11:49:15.901Z,280
2016-06-15T11:50:15.858Z,215
2016-06-15T11:51:15.891Z,260
2016-06-15T11:52:17.148Z,235
2016-06-15T11:53:15.960Z,265
2016-06-15T11:54:15.838Z,345
2016-06-15T11:55:15.654Z,355
2016-06-15T11:56:15.812Z,355
2016-06-15T11:57:15.801Z,345
2016-06-15T11:58:15.804Z,335
2016-06-15T11:59:15.822Z,340
2016-06-15T12:00:15.826Z,335
2016-06-15T12:01:15.844Z,335
2016-06-15T12:02:15.770Z,345
2016-06-15T12:03:15.773Z,350
2016-06-15T12:04:15.744Z,190
2016-06-15T12:05:15.763Z,175
2016-06-15T12:06:15.593Z,280
2016-06-15T12:07:15.613Z,330
2016-06-15T12:08:15.927Z,280
2016-06-15T12:09:15.588Z,305
2016-06-15T12:10:15.731Z,215
2016-06-15T12:11:15.578Z,220
2016-06-15T12:12:15.581Z,205
2016-06-15T12:13:15.756Z,230
2016-06-15T12:14:15.728Z,170
2016-06-15T12:15:15.528Z,210
2016-06-15T12:16:15.688Z,145
2016-06-15T12:17:15.674Z,110
2016-06-15T12:18:15.661Z,85
2016-06-15T12:19:15.650Z,65
2016-06-15T12:20:15.497Z,50
2016-06-15T12:21:15.484Z,40
2016-06-15T12:22:15.659Z,35
2016-06-15T12:23:16.895Z,35
2016-06-15T12:24:15.680Z,30
2016-06-15T12:25:15.605Z,30
2016-06-15T12:26:15.640Z,30
2016-06-15T12:27:15.611Z,25
2016-06-15T12:28:15.599Z,25
2016-06-15T12:29:15.602Z,20
2016-06-15T12:30:15.621Z,20
2016-06-15T12:31:15.593Z,15
2016-06-15T12:32:15.580Z,15
2016-06-15T12:33:15.536Z,15
2016-06-15T12:34:15.601Z,15
2016-06-15T12:35:15.543Z,15
2016-06-15T12:36:15.514Z,20
2016-06-15T12:37:15.673Z,20
2016-06-15T12:38:15.630Z,20
2016-06-15T12:39:15.336Z,25
2016-06-15T12:40:15.479Z,25
2016-06-15T12:41:15.468Z,25
2016-06-15T12:42:15.470Z,25
2016-06-15T12:43:15.457Z,25
2016-06-15T12:44:15.273Z,25
2016-06-15T12:45:15.292Z,25
2016-06-15T12:46:15.280Z,30
2016-06-15T12:47:15.423Z,35
2016-06-15T12:48:15.551Z,35
2016-06-15T12:49:15.397Z,40
2016-06-15T12:50:15.385Z,40
2016-06-15T12:51:15.388Z,50
2016-06-15T12:52:15.595Z,55
2016-06-15T12:53:15.785Z,65
2016-06-15T12:54:15.335Z,75
2016-06-15T12:55:15.183Z,80
2016-06-15T12:56:15.341Z,90
2016-06-15T12:57:15.297Z,105
2016-06-15T12:58:15.331Z,115
2016-06-15T12:59:15.288Z,130
2016-06-15T13:00:15.276Z,140
2016-06-15T13:01:15.279Z,160
2016-06-15T13:02:15.282Z,170
2016-06-15T13:03:15.238Z,210
2016-06-15T13:04:15.241Z,195
2016-06-15T13:05:15.244Z,185
2016-06-15T13:06:15.216Z,180
2016-06-15T13:07:15.609Z,180
2016-06-15T13:08:16.300Z,180
2016-06-15T13:09:15.225Z,205
2016-06-15T13:10:15.213Z,250
2016-06-15T13:11:15.184Z,300
2016-06-15T13:12:15.062Z,335
2016-06-15T13:13:14.675Z,340
2016-06-15T13:14:15.177Z,340
2016-06-15T13:15:15.244Z,345
2016-06-15T13:16:15.169Z,345
2016-06-15T13:17:15.218Z,345
2016-06-15T13:18:15.550Z,345
2016-06-15T13:19:15.193Z,350
2016-06-15T13:20:15.118Z,345
2016-06-15T13:21:15.575Z,335
2016-06-15T13:22:15.140Z,325
2016-06-15T13:23:16.049Z,315
2016-06-15T13:24:15.069Z,315
2016-06-15T13:25:15.352Z,315
2016-06-15T13:26:15.121Z,310
2016-06-15T13:27:15.374Z,305
2016-06-15T13:28:15.065Z,300
2016-06-15T13:29:15.458Z,305
2016-06-15T13:30:15.290Z,305
2016-06-15T13:31:15.230Z,300
2016-06-15T13:32:15.030Z,315
2016-06-15T13:33:15.017Z,315
2016-06-15T13:34:15.208Z,310
2016-06-15T13:35:15.056Z,300
2016-06-15T13:36:15.011Z,290
2016-06-15T13:37:15.640Z,260
2016-06-15T13:38:16.440Z,205
2016-06-15T13:39:15.021Z,180
2016-06-15T13:40:14.976Z,185
2016-06-15T13:41:14.964Z,190
2016-06-15T13:42:14.952Z,190
2016-06-15T13:43:14.955Z,190
2016-06-15T13:44:15.145Z,180
2016-06-15T13:45:14.946Z,170
2016-06-15T13:46:14.901Z,200
2016-06-15T13:47:14.904Z,190
2016-06-15T13:48:14.736Z,180
2016-06-15T13:49:14.896Z,180
2016-06-15T13:50:14.883Z,175
2016-06-15T13:51:14.698Z,170
2016-06-15T13:52:14.857Z,160
2016-06-15T13:53:15.642Z,160
2016-06-15T13:54:14.832Z,160
2016-06-15T13:55:14.835Z,160
2016-06-15T13:56:14.823Z,150
2016-06-15T13:57:14.795Z,150
2016-06-15T13:58:14.782Z,145
2016-06-15T13:59:14.785Z,145
2016-06-15T14:00:14.772Z,145
2016-06-15T14:01:14.775Z,140
2016-06-15T14:02:14.794Z,145
2016-06-15T14:03:14.595Z,140
2016-06-15T14:04:14.769Z,140
2016-06-15T14:05:14.773Z,140
2016-06-15T14:06:14.744Z,140
2016-06-15T14:07:14.716Z,140
2016-06-15T14:08:15.157Z,145
2016-06-15T14:09:14.738Z,140
2016-06-15T14:10:14.819Z,140
2016-06-15T14:11:14.697Z,140
2016-06-15T14:12:14.684Z,145